DLH892 EDDP-EDDH
Flight info
| Callsign | DLH892 |
|---|---|
| Flight time | 0h 33m |
| Altitude | 23000 |
| Route | PENE1N PENEM Y233 ODLUN Z207 MAG M736 SOGMA M748 ERNUD M726 BKD L619 BUMIL M748 RARUP RARU3P |
| Aircraft | CRJ9/M-SDFGIRWZ/S |
Departure
| Time | 2026-04-22 18:35 |
|---|---|
| Airport | Leipzig/Halle Airport (EDDP) |
Arrival
| Time | 2026-04-22 19:09 |
|---|---|
| Airport | Hamburg Helmut Schmidt Airport (EDDH) |
| Time | Latitude | Longitude | Altitude | Speed | Heading |
|---|---|---|---|---|---|
| 2026-04-22 18:08 | 51.42018 | 12.21206 | 429 ft | 0 kts | 15° |
| 2026-04-22 18:18 | 51.42013 | 12.21204 | 417 ft | 0 kts | 15° |
| 2026-04-22 18:18 | 51.42008 | 12.21202 | 419 ft | 3 kts | 15° |
| 2026-04-22 18:18 | 51.41990 | 12.21194 | 422 ft | 3 kts | 15° |
| 2026-04-22 18:18 | 51.41972 | 12.21185 | 422 ft | 3 kts | 32° |
| 2026-04-22 18:19 | 51.41963 | 12.21159 | 420 ft | 2 kts | 94° |
| 2026-04-22 18:19 | 51.41963 | 12.21158 | 420 ft | 0 kts | 96° |
| 2026-04-22 18:26 | 51.41963 | 12.21159 | 428 ft | 0 kts | 96° |
| 2026-04-22 18:27 | 51.41962 | 12.21166 | 428 ft | 6 kts | 102° |
| 2026-04-22 18:27 | 51.41927 | 12.21319 | 430 ft | 18 kts | 104° |
| 2026-04-22 18:27 | 51.41889 | 12.21549 | 431 ft | 24 kts | 105° |
| 2026-04-22 18:27 | 51.41841 | 12.21824 | 441 ft | 26 kts | 105° |
| 2026-04-22 18:28 | 51.41798 | 12.22075 | 445 ft | 21 kts | 105° |
| 2026-04-22 18:28 | 51.41761 | 12.22291 | 451 ft | 20 kts | 105° |
| 2026-04-22 18:28 | 51.41726 | 12.22497 | 456 ft | 18 kts | 105° |
| 2026-04-22 18:28 | 51.41695 | 12.22684 | 460 ft | 17 kts | 105° |
| 2026-04-22 18:29 | 51.41665 | 12.22861 | 462 ft | 17 kts | 105° |
| 2026-04-22 18:29 | 51.41623 | 12.23105 | 463 ft | 28 kts | 105° |
| 2026-04-22 18:29 | 51.41606 | 12.23464 | 461 ft | 34 kts | 85° |
| 2026-04-22 18:29 | 51.41622 | 12.23780 | 464 ft | 23 kts | 85° |
| 2026-04-22 18:30 | 51.41632 | 12.24022 | 469 ft | 22 kts | 86° |
| 2026-04-22 18:30 | 51.41655 | 12.24505 | 472 ft | 24 kts | 85° |
| 2026-04-22 18:30 | 51.41681 | 12.24762 | 469 ft | 21 kts | 51° |
| 2026-04-22 18:31 | 51.41814 | 12.24832 | 480 ft | 28 kts | 13° |
| 2026-04-22 18:31 | 51.42036 | 12.24918 | 486 ft | 31 kts | 12° |
| 2026-04-22 18:31 | 51.42237 | 12.24992 | 480 ft | 29 kts | 14° |
| 2026-04-22 18:31 | 51.42426 | 12.25067 | 473 ft | 28 kts | 14° |
| 2026-04-22 18:32 | 51.42609 | 12.25139 | 464 ft | 26 kts | 14° |
| 2026-04-22 18:32 | 51.42784 | 12.25209 | 454 ft | 26 kts | 14° |
| 2026-04-22 18:32 | 51.42949 | 12.25276 | 448 ft | 21 kts | 24° |
| 2026-04-22 18:32 | 51.42995 | 12.25448 | 452 ft | 22 kts | 84° |
| 2026-04-22 18:33 | 51.43012 | 12.25777 | 451 ft | 35 kts | 87° |
| 2026-04-22 18:33 | 51.43028 | 12.26162 | 450 ft | 35 kts | 85° |
| 2026-04-22 18:33 | 51.43045 | 12.26516 | 453 ft | 29 kts | 86° |
| 2026-04-22 18:33 | 51.43078 | 12.26736 | 454 ft | 12 kts | 34° |
| 2026-04-22 18:34 | 51.43131 | 12.26747 | 455 ft | 7 kts | 354° |
| 2026-04-22 18:34 | 51.43186 | 12.26740 | 456 ft | 0 kts | 355° |
| 2026-04-22 18:34 | 51.43200 | 12.26738 | 456 ft | 9 kts | 355° |
| 2026-04-22 18:34 | 51.43319 | 12.26662 | 452 ft | 27 kts | 314° |
| 2026-04-22 18:35 | 51.43344 | 12.26262 | 447 ft | 63 kts | 266° |
| 2026-04-22 18:35 | 51.43292 | 12.25151 | 455 ft | 134 kts | 265° |
| 2026-04-22 18:35 | 51.43216 | 12.23413 | 665 ft | 174 kts | 266° |
| 2026-04-22 18:35 | 51.43408 | 12.21440 | 1338 ft | 187 kts | 308° |
| 2026-04-22 18:36 | 51.44588 | 12.20131 | 1660 ft | 228 kts | 341° |
| 2026-04-22 18:36 | 51.46099 | 12.19216 | 2261 ft | 239 kts | 332° |
| 2026-04-22 18:36 | 51.47559 | 12.17707 | 2872 ft | 260 kts | 324° |
| 2026-04-22 18:36 | 51.49007 | 12.15787 | 3460 ft | 280 kts | 319° |
| 2026-04-22 18:37 | 51.50446 | 12.13513 | 4029 ft | 300 kts | 314° |
| 2026-04-22 18:37 | 51.51949 | 12.11054 | 4575 ft | 317 kts | 323° |
| 2026-04-22 18:37 | 51.53251 | 12.09940 | 4923 ft | 326 kts | 341° |
| 2026-04-22 18:37 | 51.56251 | 12.08590 | 5659 ft | 331 kts | 347° |
| 2026-04-22 18:38 | 51.58445 | 12.08158 | 6166 ft | 310 kts | 359° |
| 2026-04-22 18:38 | 51.60614 | 12.08246 | 6683 ft | 316 kts | 2° |
| 2026-04-22 18:38 | 51.62850 | 12.08427 | 7041 ft | 325 kts | 3° |
| 2026-04-22 18:39 | 51.67496 | 12.08778 | 7270 ft | 342 kts | 2° |
| 2026-04-22 18:39 | 51.69840 | 12.08439 | 7281 ft | 339 kts | 342° |
| 2026-04-22 18:39 | 51.71878 | 12.06630 | 7306 ft | 333 kts | 326° |
| 2026-04-22 18:39 | 51.73661 | 12.04261 | 7314 ft | 332 kts | 318° |
| 2026-04-22 18:40 | 51.75238 | 12.01588 | 7320 ft | 334 kts | 314° |
| 2026-04-22 18:40 | 51.76771 | 11.98761 | 7319 ft | 335 kts | 313° |
| 2026-04-22 18:40 | 51.78296 | 11.95915 | 7325 ft | 335 kts | 313° |
| 2026-04-22 18:40 | 51.79827 | 11.93066 | 7318 ft | 336 kts | 313° |
| 2026-04-22 18:41 | 51.81391 | 11.90249 | 7318 ft | 336 kts | 314° |
| 2026-04-22 18:41 | 51.82949 | 11.87473 | 7733 ft | 332 kts | 314° |
| 2026-04-22 18:41 | 51.84598 | 11.84823 | 8218 ft | 335 kts | 326° |
| 2026-04-22 18:41 | 51.86682 | 11.83291 | 8730 ft | 335 kts | 344° |
| 2026-04-22 18:42 | 51.88959 | 11.82393 | 9269 ft | 338 kts | 350° |
| 2026-04-22 18:42 | 51.91275 | 11.81742 | 9919 ft | 337 kts | 351° |
| 2026-04-22 18:42 | 51.93590 | 11.81137 | 10555 ft | 336 kts | 351° |
| 2026-04-22 18:42 | 51.95921 | 11.80531 | 11166 ft | 342 kts | 351° |
| 2026-04-22 18:43 | 51.98296 | 11.79857 | 11795 ft | 350 kts | 351° |
| 2026-04-22 18:43 | 52.00741 | 11.79542 | 12435 ft | 356 kts | 2° |
| 2026-04-22 18:43 | 52.03231 | 11.79849 | 13097 ft | 362 kts | 7° |
| 2026-04-22 18:43 | 52.05752 | 11.80359 | 13772 ft | 367 kts | 8° |
| 2026-04-22 18:44 | 52.08310 | 11.80893 | 14417 ft | 372 kts | 8° |
| 2026-04-22 18:44 | 52.10897 | 11.81427 | 15028 ft | 376 kts | 8° |
| 2026-04-22 18:44 | 52.13512 | 11.81897 | 15648 ft | 380 kts | 7° |
| 2026-04-22 18:44 | 52.16168 | 11.81885 | 16268 ft | 385 kts | 354° |
| 2026-04-22 18:45 | 52.18779 | 11.80792 | 16902 ft | 390 kts | 343° |
| 2026-04-22 18:45 | 52.21336 | 11.79283 | 17569 ft | 392 kts | 342° |
| 2026-04-22 18:45 | 52.23893 | 11.77732 | 18244 ft | 393 kts | 342° |
| 2026-04-22 18:45 | 52.26436 | 11.76221 | 18878 ft | 393 kts | 343° |
| 2026-04-22 18:46 | 52.29027 | 11.74781 | 19464 ft | 393 kts | 344° |
| 2026-04-22 18:46 | 52.31617 | 11.73365 | 20079 ft | 393 kts | 344° |
| 2026-04-22 18:46 | 52.34210 | 11.71951 | 20701 ft | 392 kts | 344° |
| 2026-04-22 18:46 | 52.36794 | 11.70534 | 21337 ft | 391 kts | 344° |
| 2026-04-22 18:47 | 52.39371 | 11.69120 | 21967 ft | 389 kts | 344° |
| 2026-04-22 18:47 | 52.41938 | 11.67715 | 22504 ft | 390 kts | 344° |
| 2026-04-22 18:47 | 52.44515 | 11.66300 | 23027 ft | 391 kts | 344° |
| 2026-04-22 18:47 | 52.47095 | 11.64879 | 23574 ft | 391 kts | 344° |
| 2026-04-22 18:48 | 52.49683 | 11.63450 | 23984 ft | 395 kts | 344° |
| 2026-04-22 18:48 | 52.52313 | 11.61978 | 24161 ft | 404 kts | 342° |
| 2026-04-22 18:48 | 52.54933 | 11.60118 | 24257 ft | 416 kts | 336° |
| 2026-04-22 18:48 | 52.57518 | 11.57922 | 24291 ft | 428 kts | 334° |
| 2026-04-22 18:49 | 52.60183 | 11.55598 | 24305 ft | 439 kts | 335° |
| 2026-04-22 18:49 | 52.62918 | 11.53231 | 24319 ft | 449 kts | 335° |
| 2026-04-22 18:49 | 52.65738 | 11.50884 | 24326 ft | 458 kts | 336° |
| 2026-04-22 18:49 | 52.68604 | 11.48516 | 24330 ft | 464 kts | 336° |
| 2026-04-22 18:50 | 52.71514 | 11.46114 | 24319 ft | 469 kts | 335° |
| 2026-04-22 18:50 | 52.74440 | 11.43695 | 24316 ft | 472 kts | 335° |
| 2026-04-22 18:50 | 52.77378 | 11.41258 | 24312 ft | 471 kts | 335° |
| 2026-04-22 18:50 | 52.80300 | 11.38834 | 24315 ft | 469 kts | 335° |
| 2026-04-22 18:51 | 52.83209 | 11.36421 | 24303 ft | 467 kts | 335° |
| 2026-04-22 18:51 | 52.85137 | 11.34817 | 24306 ft | 465 kts | 335° |
| 2026-04-22 18:51 | 52.88026 | 11.32403 | 24301 ft | 464 kts | 335° |
| 2026-04-22 18:51 | 52.90908 | 11.30007 | 24299 ft | 462 kts | 335° |
| 2026-04-22 18:52 | 52.94702 | 11.26834 | 24298 ft | 461 kts | 335° |
| 2026-04-22 18:52 | 52.97559 | 11.24437 | 24299 ft | 460 kts | 335° |
| 2026-04-22 18:52 | 53.00413 | 11.22052 | 24180 ft | 461 kts | 335° |
| 2026-04-22 18:52 | 53.02349 | 11.20433 | 23909 ft | 457 kts | 335° |
| 2026-04-22 18:53 | 53.05156 | 11.18071 | 23440 ft | 447 kts | 335° |
| 2026-04-22 18:53 | 53.07868 | 11.15782 | 22969 ft | 439 kts | 335° |
| 2026-04-22 18:53 | 53.10578 | 11.13495 | 22506 ft | 436 kts | 335° |
| 2026-04-22 18:53 | 53.13275 | 11.11217 | 22051 ft | 433 kts | 335° |
| 2026-04-22 18:54 | 53.15951 | 11.08956 | 21601 ft | 430 kts | 335° |
| 2026-04-22 18:54 | 53.18592 | 11.06722 | 20995 ft | 419 kts | 335° |
| 2026-04-22 18:54 | 53.21166 | 11.04537 | 20356 ft | 412 kts | 335° |
| 2026-04-22 18:54 | 53.23719 | 11.02367 | 19723 ft | 411 kts | 335° |
| 2026-04-22 18:55 | 53.26259 | 11.00213 | 19133 ft | 406 kts | 335° |
| 2026-04-22 18:55 | 53.28741 | 10.98096 | 18526 ft | 396 kts | 335° |
| 2026-04-22 18:55 | 53.31168 | 10.96031 | 17842 ft | 387 kts | 335° |
| 2026-04-22 18:55 | 53.33543 | 10.94002 | 17173 ft | 380 kts | 335° |
| 2026-04-22 18:56 | 53.35877 | 10.92005 | 16513 ft | 374 kts | 335° |
| 2026-04-22 18:56 | 53.38178 | 10.90041 | 15877 ft | 368 kts | 335° |
| 2026-04-22 18:56 | 53.40442 | 10.88100 | 15254 ft | 363 kts | 335° |
| 2026-04-22 18:56 | 53.42675 | 10.86184 | 14621 ft | 358 kts | 335° |
| 2026-04-22 18:57 | 53.44857 | 10.84316 | 14022 ft | 354 kts | 335° |
| 2026-04-22 18:57 | 53.47035 | 10.82441 | 13351 ft | 350 kts | 335° |
| 2026-04-22 18:57 | 53.49195 | 10.80586 | 12693 ft | 346 kts | 335° |
| 2026-04-22 18:57 | 53.51327 | 10.78750 | 12058 ft | 341 kts | 335° |
| 2026-04-22 18:58 | 53.53412 | 10.76949 | 11734 ft | 328 kts | 335° |
| 2026-04-22 18:58 | 53.55374 | 10.75256 | 11765 ft | 307 kts | 335° |
| 2026-04-22 18:58 | 53.57230 | 10.73699 | 11765 ft | 289 kts | 339° |
| 2026-04-22 18:58 | 53.59054 | 10.72532 | 11762 ft | 273 kts | 342° |
| 2026-04-22 18:59 | 53.60806 | 10.71516 | 11759 ft | 260 kts | 343° |
| 2026-04-22 18:59 | 53.62488 | 10.70571 | 11679 ft | 251 kts | 344° |
| 2026-04-22 18:59 | 53.64178 | 10.69642 | 11191 ft | 260 kts | 344° |
| 2026-04-22 18:59 | 53.65927 | 10.68700 | 10694 ft | 267 kts | 344° |
| 2026-04-22 19:00 | 53.67712 | 10.67754 | 10221 ft | 271 kts | 344° |
| 2026-04-22 19:00 | 53.69506 | 10.66702 | 9681 ft | 275 kts | 335° |
| 2026-04-22 19:00 | 53.70976 | 10.64678 | 9181 ft | 278 kts | 316° |
| 2026-04-22 19:00 | 53.72299 | 10.62335 | 8666 ft | 273 kts | 315° |
| 2026-04-22 19:01 | 53.73582 | 10.59996 | 8168 ft | 269 kts | 315° |
| 2026-04-22 19:01 | 53.74836 | 10.57672 | 7669 ft | 266 kts | 314° |
| 2026-04-22 19:01 | 53.76066 | 10.55370 | 7169 ft | 262 kts | 314° |
| 2026-04-22 19:01 | 53.77278 | 10.53097 | 6683 ft | 259 kts | 314° |
| 2026-04-22 19:02 | 53.78477 | 10.50849 | 6163 ft | 255 kts | 314° |
| 2026-04-22 19:02 | 53.79640 | 10.48618 | 5655 ft | 251 kts | 308° |
| 2026-04-22 19:02 | 53.80221 | 10.45862 | 5118 ft | 254 kts | 273° |
| 2026-04-22 19:02 | 53.80180 | 10.42890 | 4526 ft | 250 kts | 282° |
| 2026-04-22 19:03 | 53.80692 | 10.40117 | 3920 ft | 246 kts | 294° |
| 2026-04-22 19:03 | 53.81163 | 10.37445 | 3564 ft | 237 kts | 272° |
| 2026-04-22 19:03 | 53.80741 | 10.34845 | 3422 ft | 225 kts | 245° |
| 2026-04-22 19:03 | 53.79913 | 10.32717 | 3340 ft | 209 kts | 236° |
| 2026-04-22 19:04 | 53.79062 | 10.30850 | 3307 ft | 191 kts | 234° |
| 2026-04-22 19:04 | 53.78204 | 10.29065 | 3315 ft | 207 kts | 233° |
| 2026-04-22 19:04 | 53.77226 | 10.27088 | 3364 ft | 232 kts | 232° |
| 2026-04-22 19:04 | 53.76158 | 10.24985 | 3387 ft | 230 kts | 231° |
| 2026-04-22 19:05 | 53.75137 | 10.23016 | 3361 ft | 216 kts | 232° |
| 2026-04-22 19:05 | 53.74122 | 10.21235 | 3267 ft | 207 kts | 227° |
| 2026-04-22 19:05 | 53.73151 | 10.19517 | 3110 ft | 200 kts | 232° |
| 2026-04-22 19:05 | 53.72274 | 10.17656 | 2600 ft | 204 kts | 236° |
| 2026-04-22 19:06 | 53.71424 | 10.15737 | 2100 ft | 204 kts | 237° |
| 2026-04-22 19:06 | 53.70553 | 10.13781 | 1481 ft | 209 kts | 237° |
| 2026-04-22 19:06 | 53.69690 | 10.11832 | 1240 ft | 200 kts | 237° |
| 2026-04-22 19:07 | 53.67779 | 10.08621 | 1139 ft | 178 kts | 232° |
| 2026-04-22 19:07 | 53.67137 | 10.07208 | 1039 ft | 134 kts | 243° |
| 2026-04-22 19:07 | 53.66611 | 10.06060 | 818 ft | 123 kts | 237° |
| 2026-04-22 19:07 | 53.66062 | 10.04975 | 693 ft | 113 kts | 237° |
| 2026-04-22 19:08 | 53.65563 | 10.03935 | 509 ft | 113 kts | 234° |
| 2026-04-22 19:08 | 53.65044 | 10.02893 | 427 ft | 117 kts | 237° |
| 2026-04-22 19:08 | 53.64516 | 10.01835 | 306 ft | 111 kts | 236° |
| 2026-04-22 19:08 | 53.64004 | 10.00810 | 221 ft | 112 kts | 234° |
| 2026-04-22 19:09 | 53.63508 | 9.99786 | 56 ft | 116 kts | 235° |
| 2026-04-22 19:09 | 53.63053 | 9.98854 | 42 ft | 86 kts | 231° |
| 2026-04-22 19:09 | 53.62819 | 9.98376 | 43 ft | 24 kts | 230° |
| 2026-04-22 19:09 | 53.62725 | 9.98187 | 43 ft | 20 kts | 229° |
| 2026-04-22 19:10 | 53.62634 | 9.98003 | 41 ft | 21 kts | 230° |
| 2026-04-22 19:10 | 53.62542 | 9.97822 | 39 ft | 20 kts | 218° |
| 2026-04-22 19:10 | 53.62442 | 9.97833 | 39 ft | 12 kts | 129° |
| 2026-04-22 19:10 | 53.62430 | 9.97888 | 39 ft | 1 kts | 96° |
| 2026-04-22 19:11 | 53.62429 | 9.97898 | 39 ft | 1 kts | 91° |
| 2026-04-22 19:11 | 53.62430 | 9.97915 | 39 ft | 2 kts | 86° |
| 2026-04-22 19:11 | 53.62431 | 9.97938 | 39 ft | 2 kts | 80° |
| 2026-04-22 19:11 | 53.62436 | 9.97977 | 39 ft | 10 kts | 76° |
| 2026-04-22 19:12 | 53.62507 | 9.98178 | 40 ft | 22 kts | 51° |
| 2026-04-22 19:12 | 53.62607 | 9.98381 | 40 ft | 22 kts | 50° |
| 2026-04-22 19:12 | 53.62706 | 9.98580 | 41 ft | 22 kts | 50° |
| 2026-04-22 19:12 | 53.62801 | 9.98777 | 41 ft | 22 kts | 50° |
| 2026-04-22 19:13 | 53.62897 | 9.98970 | 41 ft | 21 kts | 50° |
| 2026-04-22 19:13 | 53.62992 | 9.99162 | 42 ft | 21 kts | 50° |
| 2026-04-22 19:13 | 53.63071 | 9.99334 | 43 ft | 9 kts | 55° |
| 2026-04-22 19:13 | 53.63082 | 9.99359 | 43 ft | 0 kts | 55° |
| 2026-04-22 19:15 | 53.63095 | 9.99390 | 43 ft | 14 kts | 55° |
| 2026-04-22 19:15 | 53.63184 | 9.99591 | 42 ft | 23 kts | 50° |
| 2026-04-22 19:15 | 53.63205 | 9.99635 | 43 ft | 0 kts | 50° |
| 2026-04-22 19:17 | 53.63212 | 9.99648 | 43 ft | 8 kts | 50° |
| 2026-04-22 19:18 | 53.63217 | 9.99762 | 43 ft | 9 kts | 136° |
| 2026-04-22 19:18 | 53.63091 | 9.99876 | 43 ft | 30 kts | 154° |
| 2026-04-22 19:18 | 53.62971 | 9.99980 | 44 ft | 1 kts | 153° |
| 2026-04-22 19:18 | 53.62941 | 10.00007 | 44 ft | 7 kts | 142° |
| 2026-04-22 19:19 | 53.62934 | 10.00055 | 44 ft | 11 kts | 66° |
| 2026-04-22 19:19 | 53.62965 | 10.00108 | 44 ft | 0 kts | 34° |
| 2026-04-22 19:19 | 53.62969 | 10.00113 | 44 ft | 1 kts | 36° |
| 2026-04-22 19:19 | 53.62972 | 10.00117 | 44 ft | 3 kts | 36° |
| 2026-04-22 19:20 | 53.63003 | 10.00153 | 44 ft | 0 kts | 32° |
| 2026-04-22 19:20 | 53.63009 | 10.00158 | 44 ft | 0 kts | 32° |
| 2026-04-22 19:20 | 53.63009 | 10.00159 | 44 ft | 2 kts | 32° |
| 2026-04-22 19:20 | 53.63032 | 10.00151 | 44 ft | 0 kts | 324° |
| 2026-04-22 19:21 | 53.63060 | 10.00113 | 44 ft | 10 kts | 320° |
| 2026-04-22 19:21 | 53.63069 | 10.00100 | 44 ft | 0 kts | 320° |